createdAt,value
2019-06-07T05:39:25.219Z,75.83
2019-06-07T05:40:25.200Z,75.12
2019-06-07T05:41:25.215Z,75.29
2019-06-07T05:42:25.176Z,73.77
2019-06-07T05:43:25.171Z,74.07
2019-06-07T05:44:25.165Z,73.63
2019-06-07T05:45:25.143Z,73.33
2019-06-07T05:46:25.145Z,74.14
2019-06-07T05:47:25.517Z,74.24
2019-06-07T05:48:25.111Z,73.16
2019-06-07T05:49:25.099Z,72.65
2019-06-07T05:50:39.234Z,72.52
2019-06-07T05:51:26.086Z,72.21
2019-06-07T05:52:25.067Z,71.20
2019-06-07T05:53:25.053Z,71.20
2019-06-07T05:54:25.046Z,70.45
2019-06-07T05:55:25.030Z,70.56
2019-06-07T05:56:25.031Z,70.05
2019-06-07T05:57:25.018Z,69.95
2019-06-07T05:58:25.004Z,70.56
2019-06-07T05:59:24.986Z,71.26
2019-06-07T06:00:25.279Z,70.86
2019-06-07T06:01:42.826Z,69.74
2019-06-07T06:02:26.074Z,70.69
2019-06-07T06:03:24.943Z,70.96
2019-06-07T06:04:24.931Z,70.52
2019-06-07T06:05:34.394Z,69.85
2019-06-07T06:06:25.916Z,69.74
2019-06-07T06:07:24.900Z,69.61
2019-06-07T06:08:24.886Z,69.10
2019-06-07T06:09:24.874Z,69.74
2019-06-07T06:10:24.863Z,70.42
2019-06-07T06:11:42.988Z,69.61
2019-06-07T06:12:35.254Z,69.68
2019-06-07T06:13:25.833Z,69.18
2019-06-07T06:14:24.818Z,69.27
2019-06-07T06:15:41.466Z,68.97
2019-06-07T06:16:25.805Z,68.33
2019-06-07T06:17:24.787Z,68.13
2019-06-07T06:18:24.774Z,68.13
2019-06-07T06:19:24.791Z,68.03
2019-06-07T06:20:32.494Z,68.94
2019-06-07T06:21:25.751Z,68.54
2019-06-07T06:22:24.731Z,68.43
2019-06-07T06:23:24.720Z,68.23
2019-06-07T06:24:24.711Z,68.43
2019-06-07T06:25:33.758Z,68.74
2019-06-07T06:26:25.697Z,68.67
2019-06-07T06:28:25.663Z,68.57
2019-06-07T06:29:24.652Z,68.63
2019-06-07T06:30:24.642Z,68.84
2019-06-07T06:31:24.674Z,68.51
2019-06-07T06:32:42.065Z,68.20
2019-06-07T06:33:33.452Z,67.36
2019-06-07T06:34:25.599Z,67.06
2019-06-07T06:35:24.587Z,66.75
2019-06-07T06:36:24.587Z,66.65
2019-06-07T06:37:24.569Z,66.12
2019-06-07T06:38:24.560Z,66.08
2019-06-07T06:39:24.539Z,66.22
2019-06-07T06:40:24.533Z,65.99
2019-06-07T06:41:24.519Z,66.12
2019-06-07T06:42:24.519Z,66.62
2019-06-07T06:43:24.495Z,66.32
2019-06-07T06:44:24.490Z,66.96
2019-06-07T06:45:24.476Z,66.75
2019-06-07T06:46:37.925Z,67.29
2019-06-07T06:47:25.459Z,67.12
2019-06-07T06:48:24.441Z,68.23
2019-06-07T06:49:24.431Z,66.99
2019-06-07T06:50:24.418Z,66.86
2019-06-07T06:51:24.407Z,66.35
2019-06-07T06:52:24.405Z,66.55
2019-06-07T06:53:24.392Z,66.32
2019-06-07T06:54:40.226Z,66.25
2019-06-07T06:55:25.363Z,66.86
2019-06-07T06:56:24.351Z,66.62
2019-06-07T06:57:24.352Z,66.12
2019-06-07T06:58:24.330Z,66.32
2019-06-07T06:59:38.858Z,66.72
2019-06-07T07:00:43.035Z,66.12
2019-06-07T07:01:25.295Z,66.62
2019-06-07T07:02:24.293Z,65.99
2019-06-07T07:03:56.450Z,65.92
2019-06-07T07:04:25.262Z,66.02
2019-06-07T07:05:24.249Z,65.92
2019-06-07T07:06:26.884Z,66.93
2019-06-07T07:07:24.238Z,65.75
2019-06-07T07:08:24.219Z,66.48
2019-06-07T07:09:24.206Z,66.38
2019-06-07T07:10:24.195Z,67.22
2019-06-07T07:11:24.184Z,67.12
2019-06-07T07:12:24.200Z,67.32
2019-06-07T07:13:24.163Z,68.37
2019-06-07T07:14:24.150Z,68.03
2019-06-07T07:15:24.141Z,68.23
2019-06-07T07:16:24.127Z,68.13
2019-06-07T07:17:46.675Z,68.51
2019-06-07T07:18:25.104Z,67.06
2019-06-07T07:19:24.093Z,68.30
2019-06-07T07:20:24.439Z,65.84
2019-06-07T07:21:24.070Z,66.99
2019-06-07T07:22:24.070Z,67.76
2019-06-07T07:23:24.049Z,66.86
2019-06-07T07:24:24.038Z,65.84
2019-06-07T07:25:24.027Z,66.25
2019-06-07T07:26:24.044Z,66.96
2019-06-07T07:27:24.012Z,66.15
2019-06-07T07:28:23.994Z,66.02
2019-06-07T07:29:24.033Z,65.31
2019-06-07T07:30:36.514Z,66.12
2019-06-07T07:31:24.962Z,65.01
2019-06-07T07:32:23.957Z,64.90
2019-06-07T07:33:23.936Z,65.11
2019-06-07T07:34:34.545Z,65.48
2019-06-07T07:35:24.911Z,65.38
2019-06-07T07:36:38.684Z,65.48
2019-06-07T07:37:24.909Z,64.98
2019-06-07T07:38:23.907Z,64.37
2019-06-07T07:39:23.867Z,64.67
2019-06-07T07:41:24.845Z,63.73
2019-06-07T07:42:23.835Z,63.53
2019-06-07T07:43:23.834Z,63.73
2019-06-07T07:44:23.815Z,62.49
2019-06-07T07:45:23.801Z,63.20
2019-06-07T07:46:29.678Z,63.00
2019-06-07T07:47:24.777Z,63.00
2019-06-07T07:48:23.775Z,62.80
2019-06-07T07:49:23.755Z,62.90
2019-06-07T07:50:23.747Z,63.10
2019-06-07T07:51:23.736Z,63.40
2019-06-07T07:52:23.721Z,63.00
2019-06-07T07:53:23.719Z,63.40
2019-06-07T07:54:23.700Z,63.00
2019-06-07T07:55:23.723Z,62.66
2019-06-07T07:56:23.680Z,61.96
2019-06-07T07:57:23.670Z,61.76
2019-06-07T07:58:23.665Z,62.06
2019-06-07T07:59:41.066Z,61.56
2019-06-07T08:00:50.328Z,61.56
2019-06-07T08:01:24.622Z,62.16
2019-06-07T08:02:23.609Z,61.13
2019-06-07T08:03:23.609Z,61.53
2019-06-07T08:04:29.464Z,61.53
2019-06-07T08:05:41.590Z,60.83
2019-06-07T08:06:24.567Z,60.72
2019-06-07T08:07:23.572Z,60.12
2019-06-07T08:08:23.556Z,60.02
2019-06-07T08:09:23.534Z,60.93
2019-06-07T08:10:23.538Z,59.69
2019-06-07T08:11:23.509Z,59.28
2019-06-07T08:12:23.503Z,58.98
2019-06-07T08:13:26.855Z,58.55
2019-06-07T08:14:23.492Z,57.65
2019-06-07T08:15:23.467Z,57.75
2019-06-07T08:16:23.456Z,58.25
2019-06-07T08:17:23.445Z,57.82
2019-06-07T08:18:23.445Z,59.43
2019-06-07T08:19:23.424Z,57.90
2019-06-07T08:20:23.413Z,56.86
2019-06-07T08:21:26.654Z,55.76
2019-06-07T08:22:23.391Z,55.13
2019-06-07T08:23:23.388Z,55.33
2019-06-07T08:24:23.367Z,54.33
2019-06-07T08:25:23.357Z,55.20
2019-06-07T08:26:23.351Z,54.58
2019-06-07T08:27:26.778Z,54.00
2019-06-07T08:28:23.334Z,55.30
2019-06-07T08:29:23.373Z,53.80
2019-06-07T08:30:47.974Z,54.50
2019-06-07T08:31:24.291Z,55.03
2019-06-07T08:32:23.278Z,54.93
2019-06-07T08:33:26.339Z,55.76
2019-06-07T08:34:23.253Z,55.96
2019-06-07T08:36:02.891Z,56.16
2019-06-07T08:36:40.810Z,56.03
2019-06-07T08:38:13.447Z,55.73
2019-06-07T08:38:29.675Z,55.13
2019-06-07T08:39:24.215Z,55.53
2019-06-07T08:40:23.185Z,55.30
2019-06-07T08:41:23.178Z,55.00
2019-06-07T08:42:36.493Z,54.58
2019-06-07T08:43:24.153Z,54.97
2019-06-07T08:44:25.498Z,55.05
2019-06-07T08:45:23.132Z,53.22
2019-06-07T08:46:23.124Z,52.32
2019-06-07T08:47:23.108Z,52.72
2019-06-07T08:48:28.002Z,53.22
2019-06-07T08:49:24.094Z,52.19
2019-06-07T08:50:23.083Z,52.27
2019-06-07T08:51:23.063Z,51.64
2019-06-07T08:52:23.053Z,51.54
2019-06-07T08:53:23.042Z,51.74
2019-06-07T08:54:23.562Z,51.92
2019-06-07T08:55:23.020Z,50.59
2019-06-07T08:56:23.014Z,50.49
2019-06-07T08:57:23.002Z,51.39
2019-06-07T08:58:22.999Z,50.09
2019-06-07T08:59:22.983Z,50.47
2019-06-07T09:00:45.540Z,50.15
2019-06-07T09:01:23.952Z,50.47
2019-06-07T09:02:24.166Z,50.07
2019-06-07T09:03:22.938Z,50.04
2019-06-07T09:04:22.933Z,49.55
2019-06-07T09:05:22.909Z,50.04
2019-06-07T09:07:23.891Z,49.62
2019-06-07T09:08:29.802Z,49.38
2019-06-07T09:09:23.873Z,48.05
2019-06-07T09:10:22.856Z,47.83
2019-06-07T09:11:22.843Z,48.35
2019-06-07T09:12:22.833Z,48.85
2019-06-07T09:13:22.821Z,48.25
2019-06-07T09:14:22.821Z,48.68
2019-06-07T09:15:24.319Z,48.05
2019-06-07T09:16:22.792Z,47.56
2019-06-07T09:17:22.777Z,47.86
2019-06-07T09:18:40.849Z,48.73
2019-06-07T09:19:23.762Z,46.72
2019-06-07T09:20:36.532Z,47.53
2019-06-07T09:21:23.731Z,47.41
2019-06-07T09:22:22.722Z,47.33
2019-06-07T09:23:22.709Z,48.43
2019-06-07T09:24:22.710Z,48.63
2019-06-07T09:25:22.692Z,47.71
2019-06-07T09:26:22.676Z,47.02
2019-06-07T09:27:22.666Z,47.51
2019-06-07T09:28:22.656Z,47.02
2019-06-07T09:29:22.661Z,47.51
2019-06-07T09:30:22.637Z,46.72
2019-06-07T09:31:22.626Z,47.09
2019-06-07T09:32:22.613Z,46.39
2019-06-07T09:33:22.601Z,47.05
2019-06-07T09:34:22.610Z,46.37
2019-06-07T09:35:22.589Z,46.20
2019-06-07T09:36:22.568Z,46.31
2019-06-07T09:38:03.669Z,46.54
2019-06-07T09:38:26.082Z,47.81
2019-06-07T09:39:22.535Z,47.74
2019-06-07T09:40:27.629Z,47.74
2019-06-07T09:41:42.724Z,46.76
2019-06-07T09:42:23.502Z,48.05
2019-06-07T09:44:26.176Z,48.16
2019-06-07T09:45:22.480Z,48.63
2019-06-07T09:46:22.472Z,48.65
2019-06-07T09:47:32.322Z,48.55
2019-06-07T09:49:09.145Z,48.65
2019-06-07T09:49:31.896Z,48.75
2019-06-07T09:50:23.427Z,48.16
2019-06-07T09:51:22.411Z,48.03
2019-06-07T09:52:22.404Z,48.03
2019-06-07T09:53:23.534Z,48.71
2019-06-07T09:55:04.066Z,48.50
2019-06-07T09:55:25.051Z,46.79
2019-06-07T09:56:22.362Z,46.30
2019-06-07T09:57:22.342Z,47.69
2019-06-07T09:59:23.322Z,47.96
2019-06-07T10:00:39.714Z,46.65
2019-06-07T10:01:23.366Z,47.13
2019-06-07T10:02:22.289Z,46.48
2019-06-07T10:03:22.864Z,45.86
2019-06-07T10:04:31.233Z,45.56
2019-06-07T10:05:23.267Z,44.99
2019-06-07T10:06:22.272Z,45.37
2019-06-07T10:07:31.351Z,45.15
2019-06-07T10:09:42.306Z,44.85
2019-06-07T10:10:08.602Z,44.25
2019-06-07T10:11:23.197Z,44.95
2019-06-07T10:12:22.193Z,44.37
2019-06-07T10:13:22.220Z,45.47
2019-06-07T10:14:22.208Z,45.34
2019-06-07T10:15:22.177Z,44.27
2019-06-07T10:16:22.145Z,45.09
2019-06-07T10:17:22.136Z,45.67
2019-06-07T10:18:22.130Z,45.56
2019-06-07T10:19:22.132Z,45.56
2019-06-07T10:20:22.113Z,44.15
2019-06-07T10:21:22.126Z,45.62
2019-06-07T10:22:22.158Z,43.54
2019-06-07T10:23:22.074Z,43.52
2019-06-07T10:24:22.063Z,43.42
2019-06-07T10:25:22.072Z,44.51
2019-06-07T10:26:22.045Z,44.41
2019-06-07T10:27:22.199Z,44.29
2019-06-07T10:28:22.025Z,43.30
2019-06-07T10:29:22.018Z,43.67
2019-06-07T10:30:22.028Z,43.85
2019-06-07T10:31:22.018Z,43.26
2019-06-07T10:32:22.000Z,43.16
2019-06-07T10:33:21.978Z,43.26
2019-06-07T10:34:21.967Z,43.65
2019-06-07T10:35:21.961Z,43.75
2019-06-07T10:36:21.967Z,43.63
2019-06-07T10:37:21.936Z,43.85
2019-06-07T10:38:21.941Z,43.46
2019-06-07T10:39:21.922Z,43.60
2019-06-07T10:40:21.914Z,43.40
2019-06-07T10:41:21.920Z,44.09
2019-06-07T10:42:21.887Z,43.87
2019-06-07T10:43:21.874Z,43.48
2019-06-07T10:44:21.875Z,43.57
2019-06-07T10:45:21.888Z,43.40
2019-06-07T10:46:21.851Z,43.67
2019-06-07T10:47:21.866Z,43.38
2019-06-07T10:48:24.796Z,43.65
2019-06-07T10:49:21.814Z,43.93
2019-06-07T10:50:21.813Z,43.63
2019-06-07T10:51:21.810Z,42.92
2019-06-07T10:52:21.789Z,42.25
2019-06-07T10:53:21.834Z,43.02
2019-06-07T10:54:29.647Z,42.22
2019-06-07T10:55:22.758Z,42.35
2019-06-07T10:56:21.756Z,42.62
2019-06-07T10:57:21.754Z,42.40
2019-06-07T10:58:21.724Z,42.21
2019-06-07T10:59:21.716Z,42.30
2019-06-07T11:00:21.750Z,42.92
2019-06-07T11:01:21.712Z,42.72
2019-06-07T11:02:21.702Z,43.04
2019-06-07T11:03:21.683Z,42.54
2019-06-07T11:04:21.674Z,43.55
2019-06-07T11:05:21.667Z,43.28
2019-06-07T11:06:21.663Z,43.65
2019-06-07T11:07:21.653Z,43.75
2019-06-07T11:08:21.625Z,43.13
2019-06-07T11:09:21.652Z,43.02
2019-06-07T11:10:21.620Z,42.92
2019-06-07T11:11:21.606Z,42.50
2019-06-07T11:12:21.589Z,42.03
2019-06-07T11:13:21.573Z,41.93
2019-06-07T11:14:21.566Z,42.32
2019-06-07T11:15:21.556Z,42.13
2019-06-07T11:16:21.555Z,42.82
2019-06-07T11:17:21.549Z,42.38
2019-06-07T11:18:21.546Z,42.36
2019-06-07T11:19:21.518Z,42.34
2019-06-07T11:20:21.504Z,41.79
2019-06-07T11:21:21.505Z,43.02
2019-06-07T11:22:21.485Z,43.65
2019-06-07T11:23:21.476Z,42.98
2019-06-07T11:24:24.593Z,43.87
2019-06-07T11:25:21.492Z,43.62
2019-06-07T11:26:21.450Z,45.32
2019-06-07T11:27:21.432Z,44.73
2019-06-07T11:28:21.441Z,45.76
2019-06-07T11:29:21.424Z,46.46
2019-06-07T11:30:21.410Z,46.26
2019-06-07T11:31:21.398Z,46.38
2019-06-07T11:32:21.381Z,46.38
2019-06-07T11:33:21.371Z,45.96
2019-06-07T11:34:21.357Z,46.14
2019-06-07T11:35:21.348Z,45.72
2019-06-07T11:36:21.354Z,45.12
2019-06-07T11:37:21.356Z,45.00
2019-06-07T11:38:21.326Z,45.03
2019-06-07T11:39:21.320Z,44.89
2019-06-07T11:40:34.087Z,44.89
2019-06-07T11:41:22.301Z,44.07
2019-06-07T11:42:21.275Z,44.98
2019-06-07T11:43:21.279Z,43.67
2019-06-07T11:44:21.251Z,44.31
2019-06-07T11:45:21.245Z,45.00
2019-06-07T11:46:21.255Z,45.60
2019-06-07T11:47:21.243Z,44.60
2019-06-07T11:48:21.212Z,45.52
2019-06-07T11:49:22.108Z,45.72
2019-06-07T11:50:21.187Z,45.94
2019-06-07T11:51:21.228Z,45.70
2019-06-07T11:52:21.206Z,46.42
2019-06-07T11:53:21.156Z,46.00
2019-06-07T11:54:21.152Z,45.45
2019-06-07T11:55:21.132Z,44.33
2019-06-07T11:56:21.123Z,45.32
2019-06-07T11:57:21.359Z,45.92
2019-06-07T11:58:21.835Z,44.29
2019-06-07T11:59:21.094Z,44.27
2019-06-07T12:00:21.091Z,44.45
2019-06-07T12:01:21.069Z,44.02
2019-06-07T12:02:21.070Z,43.12
2019-06-07T12:03:21.052Z,42.48
2019-06-07T12:04:32.454Z,42.07
2019-06-07T12:05:22.029Z,41.25
2019-06-07T12:06:21.021Z,41.06
2019-06-07T12:07:21.022Z,41.67
2019-06-07T12:08:21.012Z,42.30
2019-06-07T12:09:20.984Z,43.69
2019-06-07T12:10:23.038Z,43.12
2019-06-07T12:11:21.011Z,43.59
2019-06-07T12:12:21.111Z,43.47
2019-06-07T12:13:20.943Z,42.13
2019-06-07T12:14:20.930Z,43.43
2019-06-07T12:15:20.938Z,43.71
2019-06-07T12:16:20.928Z,43.43
2019-06-07T12:17:20.912Z,43.18
2019-06-07T12:18:20.897Z,44.21
2019-06-07T12:19:20.877Z,44.98
2019-06-07T12:20:21.185Z,46.15
2019-06-07T12:21:20.855Z,43.67
2019-06-07T12:22:20.854Z,43.48
2019-06-07T12:23:20.897Z,45.00
2019-06-07T12:24:21.205Z,45.70
2019-06-07T12:25:24.751Z,46.22
2019-06-07T12:26:20.899Z,46.83
2019-06-07T12:27:20.890Z,46.56
2019-06-07T12:28:21.052Z,48.02
2019-06-07T12:29:21.138Z,47.73
2019-06-07T12:30:27.304Z,48.72
2019-06-07T12:31:21.742Z,48.32
2019-06-07T12:32:21.580Z,46.91
2019-06-07T12:33:21.704Z,47.31
2019-06-07T12:34:21.667Z,46.12
2019-06-07T12:35:21.867Z,46.19
2019-06-07T12:36:21.980Z,46.30
2019-06-07T12:37:25.299Z,46.09
2019-06-07T12:38:23.128Z,45.82
2019-06-07T12:39:20.655Z,45.79
2019-06-07T12:40:30.109Z,46.22
2019-06-07T12:41:22.407Z,45.92
2019-06-07T12:42:20.686Z,46.31
2019-06-07T12:43:20.913Z,47.41
2019-06-07T12:44:20.798Z,46.12
2019-06-07T12:45:41.311Z,46.22
2019-06-07T12:46:27.971Z,45.57
2019-06-07T12:47:21.579Z,44.64
2019-06-07T12:48:23.994Z,44.70
2019-06-07T12:49:21.569Z,43.41
2019-06-07T12:50:21.716Z,43.71
2019-06-07T12:51:21.270Z,43.79
2019-06-07T12:52:22.810Z,43.31
2019-06-07T12:53:25.927Z,43.31
2019-06-07T12:54:21.728Z,43.21
2019-06-07T12:55:22.499Z,43.21
2019-06-07T12:56:21.820Z,42.90
2019-06-07T12:57:20.462Z,42.66
2019-06-07T12:58:27.187Z,41.57
2019-06-07T12:59:22.101Z,40.48
2019-06-07T13:00:20.438Z,40.78
2019-06-07T13:01:20.831Z,40.47
2019-06-07T13:02:22.065Z,40.35
2019-06-07T13:03:20.965Z,39.73
2019-06-07T13:04:20.562Z,39.12
2019-06-07T13:05:21.636Z,38.95
2019-06-07T13:06:21.600Z,38.87
2019-06-07T13:07:21.957Z,39.28
2019-06-07T13:08:21.927Z,40.01
2019-06-07T13:09:21.838Z,40.53
2019-06-07T13:10:21.944Z,40.96
2019-06-07T13:11:26.166Z,42.54
2019-06-07T13:12:21.753Z,41.38
2019-06-07T13:13:21.059Z,42.31
2019-06-07T13:14:20.281Z,42.43
2019-06-07T13:15:22.682Z,42.50
2019-06-07T13:16:20.246Z,42.36
2019-06-07T13:17:20.409Z,41.44
2019-06-07T13:18:21.617Z,41.33
2019-06-07T13:19:20.215Z,41.33
2019-06-07T13:20:20.489Z,41.12
2019-06-07T13:21:20.351Z,40.50
2019-06-07T13:22:20.453Z,41.57
2019-06-07T13:23:20.861Z,40.56
2019-06-07T13:24:20.912Z,40.74
2019-06-07T13:25:21.285Z,40.25
2019-06-07T13:26:20.607Z,40.15
2019-06-07T13:27:20.395Z,39.86
2019-06-07T13:28:20.729Z,39.15
2019-06-07T13:29:20.462Z,39.86
2019-06-07T13:30:21.059Z,41.33
2019-06-07T13:31:21.080Z,40.56
2019-06-07T13:32:20.095Z,39.40
2019-06-07T13:33:21.774Z,41.10
2019-06-07T13:34:20.529Z,42.01
2019-06-07T13:35:21.974Z,42.52
2019-06-07T13:36:20.214Z,42.62
2019-06-07T13:37:21.111Z,42.64
2019-06-07T13:38:20.585Z,43.35
2019-06-07T13:39:23.199Z,42.27
2019-06-07T13:40:21.560Z,42.29
2019-06-07T13:41:32.584Z,42.27
2019-06-07T13:42:20.958Z,42.36
2019-06-07T13:43:19.955Z,42.05
2019-06-07T13:44:20.962Z,42.36
2019-06-07T13:45:20.123Z,43.28
2019-06-07T13:46:20.940Z,43.28
2019-06-07T13:47:21.111Z,43.57
2019-06-07T13:48:21.155Z,43.87
2019-06-07T13:49:21.403Z,43.38
2019-06-07T13:50:19.880Z,43.89
2019-06-07T13:51:21.157Z,43.57
2019-06-07T13:52:19.847Z,44.67
2019-06-07T13:53:20.701Z,45.08
2019-06-07T13:54:20.673Z,43.28
2019-06-07T13:55:20.090Z,44.39
2019-06-07T13:56:19.884Z,44.09
2019-06-07T13:57:20.027Z,45.50
2019-06-07T13:58:21.294Z,44.65
2019-06-07T13:59:20.460Z,44.06
2019-06-07T14:00:22.728Z,44.45
2019-06-07T14:01:20.337Z,42.94
2019-06-07T14:02:20.857Z,42.35
2019-06-07T14:03:23.655Z,42.57
2019-06-07T14:04:20.969Z,41.66
2019-06-07T14:05:20.924Z,42.55
2019-06-07T14:06:20.843Z,41.63
2019-06-07T14:07:21.186Z,40.42
2019-06-07T14:08:21.006Z,40.72
2019-06-07T14:09:19.660Z,40.70
2019-06-07T14:10:19.683Z,41.30
2019-06-07T14:11:19.645Z,41.18
2019-06-07T14:12:19.636Z,42.29
2019-06-07T14:13:19.625Z,42.98
2019-06-07T14:14:20.164Z,43.77
2019-06-07T14:15:20.522Z,42.41
2019-06-07T14:16:20.032Z,42.31
2019-06-07T14:17:19.577Z,43.22
2019-06-07T14:18:20.349Z,43.22
2019-06-07T14:19:20.421Z,44.93
2019-06-07T14:20:25.434Z,44.73
2019-06-07T14:21:20.525Z,45.72
2019-06-07T14:22:20.536Z,45.74
2019-06-07T14:23:37.954Z,43.54
2019-06-07T14:24:20.937Z,44.13
2019-06-07T14:25:19.799Z,43.93
2019-06-07T14:26:19.565Z,44.35
2019-06-07T14:27:19.466Z,45.94
2019-06-07T14:28:19.508Z,46.14
2019-06-07T14:29:19.463Z,46.24
2019-06-07T14:30:19.450Z,46.24
2019-06-07T14:31:19.420Z,46.36
2019-06-07T14:32:19.410Z,45.56
2019-06-07T14:33:23.033Z,45.17
2019-06-07T14:34:20.398Z,45.17
2019-06-07T14:35:19.378Z,45.96
2019-06-07T14:36:19.364Z,44.27
2019-06-07T14:37:19.364Z,45.54
2019-06-07T14:38:19.348Z,45.54
2019-06-07T14:39:19.358Z,45.47
2019-06-07T14:40:19.321Z,45.64
2019-06-07T14:41:19.327Z,45.45
2019-06-07T14:42:19.335Z,46.06
2019-06-07T14:43:19.282Z,45.94
2019-06-07T14:44:19.288Z,46.26
2019-06-07T14:45:19.294Z,46.76
2019-06-07T14:46:19.252Z,46.16
2019-06-07T14:47:19.329Z,45.39
2019-06-07T14:48:19.237Z,45.67
2019-06-07T14:49:19.228Z,45.68
2019-06-07T14:50:19.268Z,46.19
2019-06-07T14:51:19.197Z,46.20
2019-06-07T14:52:19.186Z,46.31
2019-06-07T14:53:19.175Z,47.00
2019-06-07T14:54:19.173Z,47.00
2019-06-07T14:55:19.278Z,46.62
2019-06-07T14:56:19.144Z,47.62
2019-06-07T14:57:19.131Z,47.74
2019-06-07T14:58:19.131Z,47.34
2019-06-07T14:59:19.120Z,48.04
2019-06-07T15:00:19.118Z,47.66
2019-06-07T15:01:19.093Z,48.56
2019-06-07T15:02:19.100Z,48.36
2019-06-07T15:03:19.068Z,48.16
2019-06-07T15:04:19.074Z,48.26
2019-06-07T15:05:19.048Z,49.46
2019-06-07T15:06:19.036Z,51.54
2019-06-07T15:07:19.027Z,54.53
2019-06-07T15:08:19.023Z,54.75
2019-06-07T15:09:19.017Z,55.05
2019-06-07T15:10:18.995Z,53.89
2019-06-07T15:11:18.983Z,55.11
2019-06-07T15:12:25.105Z,55.43
2019-06-07T15:13:19.956Z,58.55
2019-06-07T15:14:18.955Z,58.06
2019-06-07T15:15:18.936Z,57.56
2019-06-07T15:16:18.926Z,57.28
2019-06-07T15:17:18.933Z,57.56
2019-06-07T15:18:18.912Z,58.65
2019-06-07T15:19:18.902Z,58.48
2019-06-07T15:20:18.885Z,56.66
2019-06-07T15:21:18.874Z,56.09
2019-06-07T15:22:18.865Z,56.88
2019-06-07T15:23:18.853Z,57.09
2019-06-07T15:24:18.848Z,56.98
2019-06-07T15:25:18.831Z,58.78
2019-06-07T15:26:18.829Z,59.58
2019-06-07T15:27:18.807Z,60.21
2019-06-07T15:28:18.802Z,60.78
2019-06-07T15:29:18.797Z,60.78
2019-06-07T15:30:18.780Z,58.98
2019-06-07T15:31:18.766Z,58.78
2019-06-07T15:32:18.765Z,60.08
2019-06-07T15:33:18.738Z,59.31
2019-06-07T15:34:18.741Z,58.91
2019-06-07T15:35:18.715Z,59.44
2019-06-07T15:36:18.703Z,61.04
2019-06-07T15:37:18.701Z,63.66
2019-06-07T15:38:18.683Z,69.19
2019-06-07T15:39:18.673Z,74.06
2019-06-07T15:40:18.668Z,71.16
2019-06-07T15:41:18.658Z,76.89
2019-06-07T15:42:18.637Z,77.16
2019-06-07T15:43:18.629Z,81.35
2019-06-07T15:44:18.654Z,82.46
2019-06-07T15:45:18.617Z,83.00
2019-06-07T15:46:18.595Z,82.10
2019-06-07T15:47:18.589Z,82.24
2019-06-07T15:48:18.573Z,82.14
2019-06-07T15:49:18.559Z,82.68
2019-06-07T15:50:18.561Z,84.65
2019-06-07T15:51:18.539Z,84.25
2019-06-07T15:52:18.529Z,80.57
2019-06-07T15:53:18.552Z,82.04
2019-06-07T15:54:18.543Z,82.24
2019-06-07T15:55:18.501Z,81.33
2019-06-07T15:56:18.485Z,83.14
2019-06-07T15:57:18.471Z,84.35
2019-06-07T15:58:18.468Z,84.35
2019-06-07T15:59:18.477Z,85.62
2019-06-07T16:00:18.451Z,86.52
2019-06-07T16:01:18.432Z,86.22
2019-06-07T16:02:18.450Z,86.52
2019-06-07T16:03:18.432Z,85.42
2019-06-07T16:04:18.418Z,84.61
2019-06-07T16:05:18.397Z,83.57
2019-06-07T16:06:19.687Z,83.71
2019-06-07T16:07:18.361Z,84.21
2019-06-07T16:08:18.351Z,85.31
2019-06-07T16:09:18.359Z,85.22
2019-06-07T16:10:18.342Z,84.27
2019-06-07T16:11:18.316Z,84.17
2019-06-07T16:12:18.305Z,82.80
2019-06-07T16:13:18.293Z,82.10
2019-06-07T16:14:18.325Z,83.51
2019-06-07T16:15:18.579Z,82.70
2019-06-07T16:16:18.262Z,81.79
2019-06-07T16:17:18.250Z,80.08
2019-06-07T16:18:18.243Z,79.82
2019-06-07T16:19:18.228Z,78.31
2019-06-07T16:20:18.244Z,77.20
2019-06-07T16:21:18.205Z,76.54
2019-06-07T16:22:18.192Z,77.04
2019-06-07T16:23:18.180Z,78.25
2019-06-07T16:24:18.170Z,77.55
2019-06-07T16:25:18.169Z,77.17
2019-06-07T16:26:18.154Z,78.19
2019-06-07T16:27:18.134Z,78.08
2019-06-07T16:28:18.120Z,76.57
2019-06-07T16:29:18.109Z,77.17
2019-06-07T16:30:18.097Z,76.61
2019-06-07T16:31:18.103Z,72.67
2019-06-07T16:32:18.087Z,74.29
2019-06-07T16:33:18.070Z,72.88
2019-06-07T16:34:18.080Z,71.80
2019-06-07T16:35:18.089Z,74.29
2019-06-07T16:36:18.042Z,74.52
2019-06-07T16:37:18.020Z,74.43
2019-06-07T16:38:18.054Z,69.48
2019-06-07T16:39:17.999Z,68.88
2019-06-07T16:40:17.996Z,68.88
2019-06-07T16:41:18.007Z,66.96
2019-06-07T16:42:17.968Z,67.27
2019-06-07T16:43:18.689Z,67.16
2019-06-07T16:44:17.942Z,65.85
2019-06-07T16:45:17.932Z,65.88
2019-06-07T16:46:17.973Z,66.16
2019-06-07T16:47:17.909Z,66.66
2019-06-07T16:48:17.932Z,65.95
2019-06-07T16:49:17.891Z,63.67
2019-06-07T16:50:17.875Z,65.48
2019-06-07T16:51:17.877Z,64.98
2019-06-07T16:52:17.853Z,64.87
2019-06-07T16:53:17.907Z,64.50
2019-06-07T16:54:17.852Z,66.32
2019-06-07T16:55:17.819Z,65.92
2019-06-07T16:56:17.822Z,65.11
2019-06-07T16:57:17.913Z,64.00
2019-06-07T16:58:17.789Z,63.39
2019-06-07T16:59:17.780Z,64.81
2019-06-07T17:00:17.866Z,64.33
2019-06-07T17:01:17.785Z,64.00
2019-06-07T17:02:17.790Z,61.17
2019-06-07T17:03:17.744Z,63.09
2019-06-07T17:04:17.723Z,63.09
2019-06-07T17:05:17.712Z,63.79
2019-06-07T17:06:17.710Z,64.20
2019-06-07T17:07:17.698Z,63.79
2019-06-07T17:08:17.777Z,62.31
2019-06-07T17:09:17.689Z,62.88
2019-06-07T17:10:17.657Z,62.41
2019-06-07T17:11:17.687Z,63.32
2019-06-07T17:12:17.641Z,61.40
2019-06-07T17:13:32.543Z,62.62
2019-06-07T17:14:18.616Z,61.80
2019-06-07T17:15:17.600Z,61.20
2019-06-07T17:16:18.080Z,61.60
2019-06-07T17:17:17.576Z,60.39
2019-06-07T17:18:17.567Z,61.43
2019-06-07T17:19:17.558Z,62.51
2019-06-07T17:20:17.562Z,61.91
2019-06-07T17:21:17.551Z,61.23
2019-06-07T17:22:17.522Z,60.72
2019-06-07T17:23:17.520Z,61.53
2019-06-07T17:24:17.502Z,62.54
2019-06-07T17:25:17.491Z,63.05
2019-06-07T17:26:17.482Z,62.14
2019-06-07T17:27:17.478Z,61.33
2019-06-07T17:28:17.467Z,61.63
2019-06-07T17:29:17.454Z,61.73
2019-06-07T17:30:17.435Z,61.03
2019-06-07T17:31:17.497Z,60.55
2019-06-07T17:32:17.419Z,60.96
2019-06-07T17:33:17.401Z,62.57
2019-06-07T17:34:17.429Z,61.76
2019-06-07T17:35:17.381Z,61.73
2019-06-07T17:36:17.366Z,63.08
2019-06-07T17:37:17.362Z,61.05
2019-06-07T17:38:17.346Z,62.16
2019-06-07T17:39:17.337Z,63.08
2019-06-07T17:40:17.341Z,62.77
2019-06-07T17:41:17.315Z,63.15
2019-06-07T17:42:17.373Z,62.47
2019-06-07T17:43:17.295Z,62.07
2019-06-07T17:44:17.283Z,62.27
2019-06-07T17:45:17.293Z,65.30
2019-06-07T17:46:17.256Z,63.48
2019-06-07T17:47:17.264Z,62.77
2019-06-07T17:48:17.252Z,63.05
2019-06-07T17:49:17.222Z,63.48
2019-06-07T17:50:17.212Z,62.77
2019-06-07T17:51:17.208Z,63.28
2019-06-07T17:52:17.196Z,63.28
2019-06-07T17:53:17.180Z,63.08
2019-06-07T17:54:17.243Z,63.15
2019-06-07T17:55:17.156Z,63.18
2019-06-07T17:56:17.147Z,63.28
2019-06-07T17:57:17.158Z,62.67
2019-06-07T17:58:17.123Z,63.18
2019-06-07T17:59:17.110Z,62.95
2019-06-07T18:00:33.504Z,62.27
2019-06-07T18:01:18.086Z,61.66
2019-06-07T18:02:17.114Z,62.37
2019-06-07T18:03:17.063Z,61.23
2019-06-07T18:04:17.053Z,60.85
2019-06-07T18:05:17.044Z,61.36
2019-06-07T18:06:17.038Z,61.03
2019-06-07T18:07:17.076Z,61.53
2019-06-07T18:08:17.024Z,60.72
2019-06-07T18:09:17.018Z,59.94
2019-06-07T18:10:16.987Z,60.65
2019-06-07T18:11:16.975Z,60.12
2019-06-07T18:12:16.964Z,59.71
2019-06-07T18:13:16.966Z,60.93
2019-06-07T18:14:16.968Z,60.72
2019-06-07T18:15:16.930Z,60.42
2019-06-07T18:16:16.923Z,59.51
2019-06-07T18:17:16.907Z,59.51
2019-06-07T18:18:16.910Z,59.21
2019-06-07T18:19:16.885Z,58.37
2019-06-07T18:20:16.873Z,57.79
2019-06-07T18:21:16.863Z,58.91
2019-06-07T18:22:16.855Z,59.28
2019-06-07T18:23:16.846Z,57.97
2019-06-07T18:24:16.845Z,58.27
2019-06-07T18:25:16.820Z,58.40
2019-06-07T18:26:16.808Z,58.67
2019-06-07T18:27:16.869Z,60.19
2019-06-07T18:28:16.791Z,59.18
2019-06-07T18:29:16.778Z,59.61
2019-06-07T18:30:16.767Z,57.97
2019-06-07T18:31:16.749Z,57.97
2019-06-07T18:32:16.753Z,57.67
2019-06-07T18:33:16.736Z,57.67
2019-06-07T18:34:16.723Z,57.26
2019-06-07T18:35:16.721Z,55.94
2019-06-07T18:36:16.695Z,54.74
2019-06-07T18:37:16.681Z,54.41